Time;durP1;ratioP1;P1;durP2;ratioP2;P2;SDS_P1;SDS_P2;PMS_P1;PMS_P2;Temp;Humidity;BMP_temperature;BMP_pressure;BME280_temperature;BME280_humidity;BME280_pressure;Samples;Min_cycle;Max_cycle;Signal;HPM_P1;HPM_P2
2023/08/16 00:02:02;;;;;;;5.43;1.80;;;;;;;;;;4931656;28;97814;-81
2023/08/16 00:04:28;;;;;;;5.65;1.77;;;;;;;;;;4918097;28;100840;-80
2023/08/16 00:06:55;;;;;;;6.63;2.17;;;;;;;;;;4941053;28;101998;-81
2023/08/16 00:09:22;;;;;;;4.97;1.90;;;;;;;;;;4947020;28;99244;-80
2023/08/16 00:11:48;;;;;;;3.85;1.70;;;;;;;;;;4953116;28;98529;-80
2023/08/16 00:14:15;;;;;;;5.07;1.90;;;;;;;;;;4959501;28;98560;-81
2023/08/16 00:16:42;;;;;;;5.00;2.10;;;;;;;;;;4960389;28;98444;-81
2023/08/16 00:19:09;;;;;;;5.45;2.08;;;;;;;;;;4963525;28;99478;-81
2023/08/16 00:21:36;;;;;;;5.18;2.00;;;;;;;;;;4954062;28;98583;-81
2023/08/16 00:24:05;;;;;;;5.63;1.90;;;;;;;;;;4947386;28;100739;-81
2023/08/16 00:26:31;;;;;;;6.93;2.15;;;;;;;;;;4964378;28;98161;-81
2023/08/16 00:28:58;;;;;;;7.32;2.00;;;;;;;;;;4961979;28;98795;-80
2023/08/16 00:31:24;;;;;;;6.55;2.05;;;;;;;;;;4956908;28;101626;-80
2023/08/16 00:33:51;;;;;;;4.78;1.95;;;;;;;;;;4954418;28;99249;-80
2023/08/16 00:36:18;;;;;;;6.70;2.25;;;;;;;;;;4954250;28;101113;-80
2023/08/16 00:38:45;;;;;;;6.45;2.10;;;;;;;;;;4952692;28;99695;-82
2023/08/16 00:41:12;;;;;;;4.45;2.08;;;;;;;;;;4938122;28;98489;-82
2023/08/16 00:43:38;;;;;;;;;;;;;;;;;;4950851;28;101077;-82
2023/08/16 00:46:10;;;;;;;6.15;2.20;;;;;;;;;;4939321;28;112751;-82
2023/08/16 00:48:39;;;;;;;6.13;2.38;;;;;;;;;;4951289;28;98735;-82
2023/08/16 00:51:08;;;;;;;5.18;1.90;;;;;;;;;;4949936;28;100169;-82
2023/08/16 00:53:36;;;;;;;6.35;2.00;;;;;;;;;;4950576;28;102606;-81
2023/08/16 00:56:03;;;;;;;5.38;2.00;;;;;;;;;;4947497;28;101710;-81
2023/08/16 00:58:30;;;;;;;5.05;2.10;;;;;;;;;;4947728;28;99839;-82
2023/08/16 01:00:56;;;;;;;3.63;1.80;;;;;;;;;;4943659;28;98500;-81
2023/08/16 01:03:23;;;;;;;5.32;2.00;;;;;;;;;;4944671;28;98880;-81
2023/08/16 01:05:50;;;;;;;5.78;2.10;;;;;;;;;;4948129;28;99734;-80
2023/08/16 01:08:17;;;;;;;5.88;2.20;;;;;;;;;;4950217;28;99425;-81
2023/08/16 01:10:43;;;;;;;6.05;2.10;;;;;;;;;;4947190;28;101570;-80
2023/08/16 01:13:15;;;;;;;4.95;2.20;;;;;;;;;;4952489;28;100220;-81
2023/08/16 01:15:44;;;;;;;4.53;1.90;;;;;;;;;;4949695;28;99213;-81
2023/08/16 01:18:11;;;;;;;5.90;2.33;;;;;;;;;;4949237;28;99212;-82
2023/08/16 01:20:39;;;;;;;7.45;2.50;;;;;;;;;;4951573;28;98634;-82
2023/08/16 01:23:08;;;;;;;6.63;2.50;;;;;;;;;;4953681;28;99206;-80
2023/08/16 01:25:37;;;;;;;6.00;2.28;;;;;;;;;;4948482;28;99362;-80
2023/08/16 01:28:05;;;;;;;7.57;2.10;;;;;;;;;;4949930;28;98629;-81
2023/08/16 01:30:31;;;;;;;7.03;2.30;;;;;;;;;;4948380;28;99030;-80
2023/08/16 01:33:05;;;;;;;6.15;2.28;;;;;;;;;;4952030;28;99029;-81
2023/08/16 01:35:33;;;;;;;5.78;2.00;;;;;;;;;;4957718;28;100077;-81
2023/08/16 01:37:59;;;;;;;;;;;;;;;;;;4955471;28;101366;-81
2023/08/16 01:40:27;;;;;;;7.60;2.20;;;;;;;;;;4953600;28;99318;-81
2023/08/16 01:42:54;;;;;;;12.52;2.55;;;;;;;;;;4949101;28;98910;-82
2023/08/16 01:45:23;;;;;;;7.53;2.30;;;;;;;;;;4931123;28;99183;-82
2023/08/16 01:47:50;;;;;;;4.00;2.10;;;;;;;;;;4949400;28;99252;-81
2023/08/16 01:50:16;;;;;;;;;;;;;;;;;;4959278;28;99028;-81
2023/08/16 01:52:43;;;;;;;8.50;2.22;;;;;;;;;;4949311;28;99199;-82
2023/08/16 01:55:10;;;;;;;7.93;2.20;;;;;;;;;;4947123;28;98530;-82
2023/08/16 01:57:36;;;;;;;14.77;2.90;;;;;;;;;;4967886;28;98913;-83
2023/08/16 02:00:04;;;;;;;10.43;2.45;;;;;;;;;;4960749;28;99286;-82
2023/08/16 02:02:40;;;;;;;11.43;2.55;;;;;;;;;;4946104;28;98925;-82
2023/08/16 02:05:07;;;;;;;6.90;2.15;;;;;;;;;;4953322;28;98602;-82
2023/08/16 02:07:33;;;;;;;12.70;2.40;;;;;;;;;;4937522;28;98498;-82
2023/08/16 02:10:00;;;;;;;7.22;2.20;;;;;;;;;;4947392;28;101697;-82
2023/08/16 02:12:26;;;;;;;6.18;2.40;;;;;;;;;;4944017;28;99291;-82
2023/08/16 02:14:53;;;;;;;6.00;2.15;;;;;;;;;;4942003;28;99025;-82
2023/08/16 02:17:20;;;;;;;5.07;2.00;;;;;;;;;;4948201;28;99025;-82
2023/08/16 02:19:47;;;;;;;5.45;2.22;;;;;;;;;;4949494;28;102053;-81
2023/08/16 02:22:14;;;;;;;5.15;2.42;;;;;;;;;;4945783;28;99055;-80
2023/08/16 02:24:40;;;;;;;6.90;3.20;;;;;;;;;;4935408;28;102194;-82
2023/08/16 02:27:07;;;;;;;6.07;2.97;;;;;;;;;;4946302;28;98569;-82
2023/08/16 02:29:33;;;;;;;6.40;2.65;;;;;;;;;;4949871;28;98949;-82
2023/08/16 02:32:00;;;;;;;10.82;2.70;;;;;;;;;;4948254;28;100311;-81
2023/08/16 02:34:27;;;;;;;7.43;2.50;;;;;;;;;;4929780;28;99153;-81
2023/08/16 02:36:53;;;;;;;6.15;2.33;;;;;;;;;;4938451;28;100005;-82
2023/08/16 02:39:22;;;;;;;8.00;2.15;;;;;;;;;;4943307;28;99389;-81
2023/08/16 02:41:49;;;;;;;4.40;2.03;;;;;;;;;;4936538;28;98578;-82
2023/08/16 02:44:17;;;;;;;6.53;2.05;;;;;;;;;;4943150;28;99212;-81
2023/08/16 02:46:43;;;;;;;4.93;2.10;;;;;;;;;;4937698;28;98689;-82
2023/08/16 02:49:10;;;;;;;5.93;2.10;;;;;;;;;;4945527;28;101838;-82
2023/08/16 02:51:36;;;;;;;4.50;1.98;;;;;;;;;;4943922;28;99673;-81
2023/08/16 02:54:03;;;;;;;4.97;2.25;;;;;;;;;;4933474;28;98471;-81
2023/08/16 02:56:29;;;;;;;5.55;2.22;;;;;;;;;;4935593;28;98829;-82
2023/08/16 02:58:56;;;;;;;4.63;2.20;;;;;;;;;;4932727;28;99412;-82
2023/08/16 03:01:22;;;;;;;3.70;1.95;;;;;;;;;;4939584;28;99295;-81
2023/08/16 03:03:49;;;;;;;4.10;2.10;;;;;;;;;;4931088;28;98984;-82
2023/08/16 03:06:15;;;;;;;5.20;2.20;;;;;;;;;;4943966;28;99043;-82
2023/08/16 03:08:42;;;;;;;5.55;1.92;;;;;;;;;;4945564;28;101523;-83
2023/08/16 03:11:08;;;;;;;4.03;1.70;;;;;;;;;;4947270;28;99788;-84
2023/08/16 03:13:35;;;;;;;5.05;1.85;;;;;;;;;;4947411;28;98586;-84
2023/08/16 03:16:01;;;;;;;5.15;2.22;;;;;;;;;;4933348;28;98760;-84
2023/08/16 03:18:28;;;;;;;4.82;2.22;;;;;;;;;;4947712;28;98544;-84
2023/08/16 03:20:55;;;;;;;4.40;2.20;;;;;;;;;;4928516;28;98549;-84
2023/08/16 03:23:22;;;;;;;5.13;2.30;;;;;;;;;;4942183;28;102015;-84
2023/08/16 03:25:52;;;;;;;4.20;2.10;;;;;;;;;;4929384;28;99311;-84
2023/08/16 03:28:19;;;;;;;5.03;1.92;;;;;;;;;;4944913;28;102445;-84
2023/08/16 03:30:45;;;;;;;3.55;1.83;;;;;;;;;;4939993;28;100445;-84
2023/08/16 03:33:12;;;;;;;4.13;2.05;;;;;;;;;;4941188;28;99055;-84
2023/08/16 03:35:39;;;;;;;4.47;2.10;;;;;;;;;;4944853;28;101328;-84
2023/08/16 03:38:06;;;;;;;4.93;2.00;;;;;;;;;;4944495;28;99188;-84
2023/08/16 03:40:32;;;;;;;5.25;2.08;;;;;;;;;;4941007;28;99247;-84
2023/08/16 03:42:59;;;;;;;4.72;2.00;;;;;;;;;;4939938;28;100243;-84
2023/08/16 03:45:26;;;;;;;4.95;1.98;;;;;;;;;;4955915;28;100548;-84
2023/08/16 03:47:56;;;;;;;6.38;2.42;;;;;;;;;;4967221;28;99411;-84
2023/08/16 03:50:23;;;;;;;5.15;2.05;;;;;;;;;;4950735;28;100267;-84
2023/08/16 03:52:50;;;;;;;4.50;2.20;;;;;;;;;;4950484;28;98533;-84
2023/08/16 03:55:16;;;;;;;4.15;2.00;;;;;;;;;;4934837;28;101649;-84
2023/08/16 03:57:43;;;;;;;3.97;1.90;;;;;;;;;;4949984;28;99715;-84
2023/08/16 04:00:11;;;;;;;5.03;2.00;;;;;;;;;;4949873;28;98556;-83
2023/08/16 04:02:41;;;;;;;6.22;1.80;;;;;;;;;;4933314;28;99004;-83
2023/08/16 04:05:10;;;;;;;4.70;1.90;;;;;;;;;;4931667;28;102220;-83
2023/08/16 04:07:37;;;;;;;5.25;2.15;;;;;;;;;;4939830;28;97729;-84
2023/08/16 04:10:04;;;;;;;4.72;2.00;;;;;;;;;;4964027;28;100635;-82
2023/08/16 04:12:31;;;;;;;5.65;1.95;;;;;;;;;;4948709;28;98710;-82
2023/08/16 04:14:59;;;;;;;4.85;2.00;;;;;;;;;;4931672;28;101221;-82
2023/08/16 04:17:26;;;;;;;5.63;2.10;;;;;;;;;;4949593;28;99886;-83
2023/08/16 04:19:52;;;;;;;4.68;2.17;;;;;;;;;;4948013;28;98562;-82
2023/08/16 04:22:19;;;;;;;5.60;2.13;;;;;;;;;;4935959;28;101615;-82
2023/08/16 04:24:46;;;;;;;5.53;2.10;;;;;;;;;;4949060;28;99300;-81
2023/08/16 04:27:14;;;;;;;5.18;2.10;;;;;;;;;;4937118;28;98553;-81
2023/08/16 04:29:41;;;;;;;4.80;2.10;;;;;;;;;;4950927;28;98813;-81
2023/08/16 04:32:07;;;;;;;4.15;2.20;;;;;;;;;;4940571;28;97947;-81
2023/08/16 04:34:34;;;;;;;5.55;2.20;;;;;;;;;;4945099;28;98526;-82
2023/08/16 04:37:00;;;;;;;6.68;1.90;;;;;;;;;;4930861;28;99112;-82
2023/08/16 04:39:27;;;;;;;4.18;2.00;;;;;;;;;;4934818;28;99330;-81
2023/08/16 04:41:53;;;;;;;3.90;1.80;;;;;;;;;;4947248;28;102348;-82
2023/08/16 04:44:20;;;;;;;5.47;2.20;;;;;;;;;;4947849;28;101715;-83
2023/08/16 04:46:47;;;;;;;5.80;2.20;;;;;;;;;;4951022;28;98610;-83
2023/08/16 04:49:15;;;;;;;5.65;2.00;;;;;;;;;;4951636;28;101903;-83
2023/08/16 04:51:41;;;;;;;5.43;2.17;;;;;;;;;;4950767;28;99096;-83
2023/08/16 04:54:08;;;;;;;4.75;2.10;;;;;;;;;;4949795;28;101226;-83
2023/08/16 04:56:36;;;;;;;4.32;2.00;;;;;;;;;;4952164;28;99512;-83
2023/08/16 04:59:03;;;;;;;4.38;2.30;;;;;;;;;;4953660;28;98592;-83
2023/08/16 05:01:29;;;;;;;5.40;2.17;;;;;;;;;;4942280;28;102227;-83
2023/08/16 05:03:57;;;;;;;4.65;2.00;;;;;;;;;;4945578;28;102586;-84
2023/08/16 05:06:24;;;;;;;5.88;2.03;;;;;;;;;;4940045;28;98592;-83
2023/08/16 05:08:52;;;;;;;6.43;2.20;;;;;;;;;;4941889;28;101787;-84
2023/08/16 05:11:19;;;;;;;4.82;1.90;;;;;;;;;;4946153;28;101560;-84
2023/08/16 05:13:45;;;;;;;4.03;1.92;;;;;;;;;;4938465;28;98587;-82
2023/08/16 05:16:12;;;;;;;4.65;1.90;;;;;;;;;;4928934;28;102002;-83
2023/08/16 05:18:39;;;;;;;4.93;1.90;;;;;;;;;;4948373;28;98611;-82
2023/08/16 05:21:06;;;;;;;4.18;1.80;;;;;;;;;;4934533;28;97871;-82
2023/08/16 05:23:33;;;;;;;5.88;1.90;;;;;;;;;;4945016;28;99412;-82
2023/08/16 05:26:00;;;;;;;4.43;1.90;;;;;;;;;;4947412;28;99009;-82
2023/08/16 05:28:27;;;;;;;6.05;1.90;;;;;;;;;;4946185;28;101725;-82
2023/08/16 05:30:53;;;;;;;4.32;1.77;;;;;;;;;;4934608;28;98516;-82
2023/08/16 05:33:20;;;;;;;5.45;2.00;;;;;;;;;;4950880;28;98628;-82
2023/08/16 05:35:47;;;;;;;4.88;2.10;;;;;;;;;;4935904;28;99792;-82
2023/08/16 05:38:14;;;;;;;9.60;2.13;;;;;;;;;;4935808;28;98573;-83
2023/08/16 05:40:41;;;;;;;6.07;2.05;;;;;;;;;;4935297;28;99101;-84
2023/08/16 05:43:07;;;;;;;5.00;2.08;;;;;;;;;;4944380;28;99131;-83
2023/08/16 05:45:34;;;;;;;5.50;2.03;;;;;;;;;;4946716;28;97838;-83
2023/08/16 05:48:00;;;;;;;6.97;2.13;;;;;;;;;;4947353;28;99564;-84
2023/08/16 05:50:27;;;;;;;6.20;1.95;;;;;;;;;;4947387;28;100230;-85
2023/08/16 05:52:54;;;;;;;5.43;2.20;;;;;;;;;;4947484;28;99332;-84
2023/08/16 05:55:20;;;;;;;4.50;1.92;;;;;;;;;;4950439;28;100758;-81
2023/08/16 05:57:47;;;;;;;5.03;2.10;;;;;;;;;;4947976;28;98754;-81
2023/08/16 06:00:13;;;;;;;6.10;1.98;;;;;;;;;;4952820;28;98710;-80
2023/08/16 06:02:41;;;;;;;5.15;2.08;;;;;;;;;;4935122;28;99597;-84
2023/08/16 06:05:09;;;;;;;5.65;2.15;;;;;;;;;;4939988;28;99326;-84
2023/08/16 06:07:36;;;;;;;5.22;2.10;;;;;;;;;;4947782;28;98959;-84
2023/08/16 06:10:04;;;;;;;6.13;2.25;;;;;;;;;;4947036;28;98656;-84
2023/08/16 06:12:30;;;;;;;5.05;1.90;;;;;;;;;;4954334;28;98514;-81
2023/08/16 06:14:57;;;;;;;6.07;1.90;;;;;;;;;;4946930;28;98784;-82
2023/08/16 06:17:24;;;;;;;4.05;1.90;;;;;;;;;;4949724;28;99937;-82
2023/08/16 06:19:51;;;;;;;;;;;;;;;;;;4946245;28;102082;-82
2023/08/16 06:22:17;;;;;;;6.10;2.33;;;;;;;;;;4947212;28;99132;-82
2023/08/16 06:24:44;;;;;;;4.45;1.95;;;;;;;;;;4945205;28;99159;-82
2023/08/16 06:27:10;;;;;;;4.10;2.10;;;;;;;;;;4945112;28;101856;-82
2023/08/16 06:29:37;;;;;;;6.93;2.28;;;;;;;;;;4945196;28;99317;-82
2023/08/16 06:32:04;;;;;;;5.88;1.90;;;;;;;;;;4939811;28;98957;-82
2023/08/16 06:34:30;;;;;;;5.57;2.10;;;;;;;;;;4947792;28;99022;-82
2023/08/16 06:36:58;;;;;;;4.90;1.88;;;;;;;;;;4935263;28;100393;-82
2023/08/16 06:39:24;;;;;;;4.72;1.90;;;;;;;;;;4942689;28;98572;-82
2023/08/16 06:41:51;;;;;;;6.05;2.00;;;;;;;;;;4946179;28;100052;-81
2023/08/16 06:44:19;;;;;;;7.38;2.00;;;;;;;;;;4947835;28;98688;-82
2023/08/16 06:46:45;;;;;;;7.07;2.00;;;;;;;;;;4952002;28;98880;-81
2023/08/16 06:49:12;;;;;;;5.28;2.35;;;;;;;;;;4954288;28;99169;-81
2023/08/16 06:51:39;;;;;;;5.05;2.00;;;;;;;;;;4948916;28;99109;-81
2023/08/16 06:54:05;;;;;;;6.72;2.08;;;;;;;;;;4946788;28;99311;-82
2023/08/16 06:56:32;;;;;;;4.97;1.77;;;;;;;;;;4946166;28;99106;-80
2023/08/16 06:58:59;;;;;;;6.20;2.10;;;;;;;;;;4961507;28;97897;-81
2023/08/16 07:01:25;;;;;;;7.90;1.80;;;;;;;;;;4949520;28;98531;-82
2023/08/16 07:03:52;;;;;;;6.25;1.92;;;;;;;;;;4945629;28;98869;-81
2023/08/16 07:06:19;;;;;;;8.00;2.63;;;;;;;;;;4945442;28;99293;-81
2023/08/16 07:08:45;;;;;;;11.15;4.90;;;;;;;;;;4933909;28;100194;-80
2023/08/16 07:11:12;;;;;;;8.23;3.22;;;;;;;;;;4940595;28;99341;-80
2023/08/16 07:13:38;;;;;;;10.13;4.10;;;;;;;;;;4937623;28;101878;-80
2023/08/16 07:16:05;;;;;;;7.65;3.53;;;;;;;;;;4938289;28;99812;-79
2023/08/16 07:18:31;;;;;;;6.03;2.15;;;;;;;;;;4928814;28;98641;-81
2023/08/16 07:20:58;;;;;;;9.20;2.67;;;;;;;;;;4950434;28;98827;-82
2023/08/16 07:23:25;;;;;;;5.45;2.38;;;;;;;;;;4939536;28;98349;-82
2023/08/16 07:25:56;;;;;;;7.35;2.97;;;;;;;;;;4930066;28;99651;-82
2023/08/16 07:28:25;;;;;;;6.32;2.10;;;;;;;;;;4931684;28;99128;-83
2023/08/16 07:30:53;;;;;;;6.47;2.40;;;;;;;;;;4941255;28;99200;-82
2023/08/16 07:33:21;;;;;;;8.43;3.88;;;;;;;;;;4945132;28;99700;-83
2023/08/16 07:35:48;;;;;;;8.45;3.42;;;;;;;;;;4944789;28;99331;-82
2023/08/16 07:38:15;;;;;;;12.13;5.07;;;;;;;;;;4943305;28;98622;-80
2023/08/16 07:40:48;;;;;;;5.78;2.50;;;;;;;;;;4943377;28;102120;-81
2023/08/16 07:43:14;;;;;;;8.18;2.40;;;;;;;;;;4950805;28;99576;-81
2023/08/16 07:45:41;;;;;;;6.45;2.30;;;;;;;;;;4948293;28;100452;-81
2023/08/16 07:48:08;;;;;;;11.77;2.17;;;;;;;;;;4949623;28;98597;-81
2023/08/16 07:50:34;;;;;;;9.30;4.10;;;;;;;;;;4935229;28;98622;-81
2023/08/16 07:53:01;;;;;;;6.32;2.40;;;;;;;;;;4935138;28;99349;-81
2023/08/16 07:55:31;;;;;;;7.57;3.50;;;;;;;;;;4938190;28;100610;-82
2023/08/16 07:57:58;;;;;;;5.15;2.40;;;;;;;;;;4937218;28;98919;-82
2023/08/16 08:00:24;;;;;;;8.00;2.60;;;;;;;;;;4941654;28;99132;-82
2023/08/16 08:02:53;;;;;;;5.35;2.10;;;;;;;;;;4939381;28;98622;-82
2023/08/16 08:05:26;;;;;;;7.82;2.85;;;;;;;;;;4942033;28;98521;-82
2023/08/16 08:07:53;;;;;;;5.03;1.88;;;;;;;;;;4942740;28;99637;-82
2023/08/16 08:10:20;;;;;;;6.53;2.10;;;;;;;;;;4938364;28;98776;-82
2023/08/16 08:12:46;;;;;;;5.15;2.20;;;;;;;;;;4950434;28;98849;-81
2023/08/16 08:15:13;;;;;;;6.10;2.28;;;;;;;;;;4935692;28;99141;-82
2023/08/16 08:17:40;;;;;;;4.50;1.85;;;;;;;;;;4945214;28;98505;-82
2023/08/16 08:20:08;;;;;;;5.43;2.30;;;;;;;;;;4943794;28;99402;-82
2023/08/16 08:22:34;;;;;;;6.30;2.15;;;;;;;;;;4940758;28;99307;-81
2023/08/16 08:25:01;;;;;;;8.13;2.08;;;;;;;;;;4938167;28;98662;-82
2023/08/16 08:27:28;;;;;;;7.45;2.38;;;;;;;;;;4941206;28;99829;-82
2023/08/16 08:29:55;;;;;;;4.65;1.63;;;;;;;;;;4946951;28;98485;-81
2023/08/16 08:32:21;;;;;;;;;;;;;;;;;;4928938;28;100153;-82
2023/08/16 08:34:48;;;;;;;4.28;1.50;;;;;;;;;;4945857;28;109097;-82
2023/08/16 08:37:15;;;;;;;4.63;1.88;;;;;;;;;;4948941;28;98177;-81
2023/08/16 08:39:41;;;;;;;5.88;1.80;;;;;;;;;;4959850;28;99801;-82
2023/08/16 08:42:08;;;;;;;4.85;1.85;;;;;;;;;;4940624;28;100098;-82
2023/08/16 08:44:38;;;;;;;6.38;1.50;;;;;;;;;;4945964;28;99394;-83
2023/08/16 08:47:07;;;;;;;5.28;1.70;;;;;;;;;;4945682;28;99697;-83
2023/08/16 08:49:42;;;;;;;3.67;1.30;;;;;;;;;;4937553;28;100010;-81
2023/08/16 08:52:09;;;;;;;4.32;1.38;;;;;;;;;;4931580;28;98892;-81
2023/08/16 08:54:36;;;;;;;2.55;1.30;;;;;;;;;;4941094;28;99336;-81
2023/08/16 08:57:04;;;;;;;3.38;1.23;;;;;;;;;;4950679;28;98507;-81
2023/08/16 08:59:33;;;;;;;4.18;1.20;;;;;;;;;;4942841;28;99895;-82
2023/08/16 09:02:00;;;;;;;3.67;1.50;;;;;;;;;;4936624;28;98361;-82
2023/08/16 09:07:37;;;;;;;3.92;1.50;;;;;;;;;;4954971;28;99096;-82
2023/08/16 09:10:06;;;;;;;6.78;1.25;;;;;;;;;;4937382;28;99595;-81
2023/08/16 09:12:33;;;;;;;4.70;1.52;;;;;;;;;;4955446;28;99245;-83
2023/08/16 09:14:59;;;;;;;4.72;1.50;;;;;;;;;;4951165;28;98493;-82
2023/08/16 09:17:26;;;;;;;4.90;1.50;;;;;;;;;;4949040;28;98560;-82
2023/08/16 09:19:53;;;;;;;3.95;1.30;;;;;;;;;;4948431;28;100079;-81
2023/08/16 09:22:20;;;;;;;4.80;1.40;;;;;;;;;;4943552;28;99107;-82
2023/08/16 09:24:48;;;;;;;4.00;1.60;;;;;;;;;;4945580;28;100153;-83
2023/08/16 09:27:19;;;;;;;6.30;1.63;;;;;;;;;;4948753;28;98935;-81
2023/08/16 09:29:45;;;;;;;5.10;1.27;;;;;;;;;;4951185;28;99714;-82
2023/08/16 09:32:12;;;;;;;6.10;1.40;;;;;;;;;;4937671;28;98628;-84
2023/08/16 09:34:41;;;;;;;3.88;1.30;;;;;;;;;;4933789;28;101175;-85
2023/08/16 09:37:21;;;;;;;4.88;1.35;;;;;;;;;;4925219;28;98812;-82
2023/08/16 09:39:58;;;;;;;6.40;1.60;;;;;;;;;;4928904;28;99352;-83
2023/08/16 09:42:34;;;;;;;4.63;1.60;;;;;;;;;;4947325;28;99522;-82
2023/08/16 09:45:01;;;;;;;4.47;1.42;;;;;;;;;;4937343;28;98572;-83
2023/08/16 09:47:29;;;;;;;4.07;1.55;;;;;;;;;;4947736;28;99173;-81
2023/08/16 09:49:59;;;;;;;5.88;1.40;;;;;;;;;;4934167;28;99136;-81
2023/08/16 09:52:28;;;;;;;4.00;1.35;;;;;;;;;;4938768;28;98293;-81
2023/08/16 09:54:57;;;;;;;4.38;1.63;;;;;;;;;;4959574;28;98815;-82
2023/08/16 09:57:24;;;;;;;3.83;1.52;;;;;;;;;;4954664;28;98589;-81
2023/08/16 09:59:54;;;;;;;4.03;1.45;;;;;;;;;;4952689;28;99969;-80
2023/08/16 10:02:21;;;;;;;5.10;1.27;;;;;;;;;;4938188;28;99294;-79
2023/08/16 10:05:08;;;;;;;4.65;1.30;;;;;;;;;;4937237;28;98693;-80
2023/08/16 10:07:36;;;;;;;4.32;1.40;;;;;;;;;;4952325;28;98886;-80
2023/08/16 10:10:07;;;;;;;3.70;1.30;;;;;;;;;;4938342;28;102386;-80
2023/08/16 10:12:35;;;;;;;4.32;1.40;;;;;;;;;;4954753;28;98606;-80
2023/08/16 10:15:01;;;;;;;3.75;1.20;;;;;;;;;;4934671;28;98954;-81
2023/08/16 10:17:28;;;;;;;3.92;1.33;;;;;;;;;;4935223;28;98639;-82
2023/08/16 10:19:58;;;;;;;3.85;1.38;;;;;;;;;;4930066;28;100098;-82
2023/08/16 10:22:27;;;;;;;4.03;1.27;;;;;;;;;;4936822;28;100253;-82
2023/08/16 10:25:17;;;;;;;3.50;1.30;;;;;;;;;;4922456;28;99801;-82
2023/08/16 10:27:44;;;;;;;2.50;1.30;;;;;;;;;;4914368;28;101119;-82
2023/08/16 10:30:13;;;;;;;2.70;1.10;;;;;;;;;;4925045;28;102814;-82
2023/08/16 10:32:43;;;;;;;8.35;1.23;;;;;;;;;;4936201;28;99144;-81
2023/08/16 10:35:10;;;;;;;4.00;1.40;;;;;;;;;;4924232;28;98995;-80
2023/08/16 10:37:37;;;;;;;3.28;1.13;;;;;;;;;;4928056;28;99790;-80
2023/08/16 10:40:17;;;;;;;4.22;1.25;;;;;;;;;;4926935;28;98519;-81
2023/08/16 10:42:53;;;;;;;5.68;1.20;;;;;;;;;;4917128;28;98332;-81
2023/08/16 10:45:23;;;;;;;3.58;1.20;;;;;;;;;;4923492;28;99222;-80
2023/08/16 10:47:50;;;;;;;2.50;1.20;;;;;;;;;;4934198;28;99209;-80
2023/08/16 10:50:17;;;;;;;4.70;1.60;;;;;;;;;;4926141;28;99827;-81
2023/08/16 10:52:43;;;;;;;2.92;1.30;;;;;;;;;;4921731;28;100229;-80
2023/08/16 10:55:11;;;;;;;4.72;1.27;;;;;;;;;;4922993;28;99498;-80
2023/08/16 10:57:49;;;;;;;4.28;1.27;;;;;;;;;;4924724;28;100183;-81
2023/08/16 11:00:16;;;;;;;3.60;1.30;;;;;;;;;;4933736;28;99022;-80
2023/08/16 11:02:43;;;;;;;2.60;1.30;;;;;;;;;;4936306;28;99846;-79
2023/08/16 11:05:18;;;;;;;3.15;1.27;;;;;;;;;;4927858;28;99012;-80
2023/08/16 11:07:45;;;;;;;1.58;1.20;;;;;;;;;;4919164;28;98695;-80
2023/08/16 11:10:11;;;;;;;3.03;1.33;;;;;;;;;;4924575;28;100214;-81
2023/08/16 11:12:38;;;;;;;5.45;1.60;;;;;;;;;;4926709;28;98914;-79
2023/08/16 11:15:05;;;;;;;4.10;1.50;;;;;;;;;;4943295;28;99325;-80
2023/08/16 11:17:32;;;;;;;5.25;1.40;;;;;;;;;;4934675;28;99954;-80
2023/08/16 11:20:05;;;;;;;2.53;1.23;;;;;;;;;;4924152;28;99099;-80
2023/08/16 11:22:31;;;;;;;3.55;1.42;;;;;;;;;;4913460;28;98756;-80
2023/08/16 11:24:59;;;;;;;2.92;1.25;;;;;;;;;;4927651;28;99148;-79
2023/08/16 11:27:25;;;;;;;5.25;1.42;;;;;;;;;;4943624;28;98784;-79
2023/08/16 11:29:54;;;;;;;3.13;1.48;;;;;;;;;;4934491;28;99026;-79
2023/08/16 11:32:37;;;;;;;4.55;1.40;;;;;;;;;;4929047;28;97810;-79
2023/08/16 11:35:05;;;;;;;4.78;1.40;;;;;;;;;;4944627;28;98617;-79
2023/08/16 11:37:32;;;;;;;4.50;1.40;;;;;;;;;;4931050;28;99761;-80
2023/08/16 11:40:04;;;;;;;2.78;1.50;;;;;;;;;;4943199;28;99900;-79
2023/08/16 11:42:31;;;;;;;4.00;1.60;;;;;;;;;;4934451;28;100129;-79
2023/08/16 11:44:57;;;;;;;5.53;1.40;;;;;;;;;;4936042;28;100122;-79
2023/08/16 11:47:24;;;;;;;4.05;1.35;;;;;;;;;;4924235;28;99449;-79
2023/08/16 11:49:51;;;;;;;;;;;;;;;;;;4944274;28;100599;-80
2023/08/16 11:52:21;;;;;;;3.38;1.15;;;;;;;;;;4944523;28;98775;-80
2023/08/16 11:54:59;;;;;;;3.63;1.20;;;;;;;;;;4941333;28;99863;-79
2023/08/16 11:57:25;;;;;;;2.70;1.30;;;;;;;;;;4932238;28;98651;-80
2023/08/16 11:59:53;;;;;;;3.10;1.27;;;;;;;;;;4943159;28;99335;-79
2023/08/16 12:02:20;;;;;;;2.90;1.27;;;;;;;;;;4933208;28;99018;-79
2023/08/16 12:04:46;;;;;;;4.35;1.20;;;;;;;;;;4932800;28;101189;-80
2023/08/16 12:07:13;;;;;;;3.85;1.30;;;;;;;;;;4938416;28;99111;-80
2023/08/16 12:09:40;;;;;;;2.35;1.05;;;;;;;;;;4935356;28;99728;-79
2023/08/16 12:12:08;;;;;;;1.88;1.20;;;;;;;;;;4933821;28;98557;-80
2023/08/16 12:14:34;;;;;;;3.83;1.30;;;;;;;;;;4935559;28;101957;-80
2023/08/16 12:17:00;;;;;;;2.33;1.20;;;;;;;;;;4926776;28;101208;-80
2023/08/16 12:19:27;;;;;;;3.22;1.30;;;;;;;;;;4938871;28;98525;-80
2023/08/16 12:21:54;;;;;;;4.70;1.50;;;;;;;;;;4934671;28;98787;-80
2023/08/16 12:24:21;;;;;;;2.38;1.10;;;;;;;;;;4911228;28;102850;-80
2023/08/16 12:26:48;;;;;;;3.13;1.10;;;;;;;;;;4931854;28;98983;-80
2023/08/16 12:29:15;;;;;;;2.50;1.20;;;;;;;;;;4928960;28;99541;-80
2023/08/16 12:31:42;;;;;;;4.47;1.30;;;;;;;;;;4935251;28;100067;-80
2023/08/16 12:34:09;;;;;;;2.90;1.20;;;;;;;;;;4936205;28;98762;-80
2023/08/16 12:36:35;;;;;;;1.83;1.10;;;;;;;;;;4926555;28;99647;-82
2023/08/16 12:39:02;;;;;;;2.60;1.20;;;;;;;;;;4927323;28;98523;-81
2023/08/16 12:41:28;;;;;;;3.67;1.20;;;;;;;;;;4927910;28;98842;-81
2023/08/16 12:43:55;;;;;;;2.17;1.17;;;;;;;;;;4922042;28;99299;-81
2023/08/16 12:46:21;;;;;;;2.67;1.30;;;;;;;;;;4920583;28;98218;-81
2023/08/16 12:48:48;;;;;;;3.00;1.20;;;;;;;;;;4940153;28;99603;-81
2023/08/16 12:51:14;;;;;;;4.15;1.50;;;;;;;;;;4946180;28;100466;-80
2023/08/16 12:53:44;;;;;;;3.28;1.27;;;;;;;;;;4944788;28;99253;-81
2023/08/16 12:56:11;;;;;;;3.22;1.20;;;;;;;;;;4931560;28;99040;-81
2023/08/16 12:58:38;;;;;;;2.13;1.20;;;;;;;;;;4930235;28;98566;-82
2023/08/16 13:01:22;;;;;;;3.53;1.20;;;;;;;;;;4937461;28;98778;-82
2023/08/16 13:03:48;;;;;;;2.72;1.00;;;;;;;;;;4934681;28;101247;-82
2023/08/16 13:06:18;;;;;;;2.63;0.95;;;;;;;;;;4929674;28;99032;-81
2023/08/16 13:08:47;;;;;;;2.58;1.20;;;;;;;;;;4930234;28;98840;-82
2023/08/16 13:11:15;;;;;;;2.83;1.10;;;;;;;;;;4932698;28;99346;-81
2023/08/16 13:13:59;;;;;;;4.45;1.10;;;;;;;;;;4940819;28;99418;-81
2023/08/16 13:16:27;;;;;;;2.58;1.20;;;;;;;;;;4930534;28;100250;-82
2023/08/16 13:18:57;;;;;;;2.25;1.20;;;;;;;;;;4933486;28;99405;-80
2023/08/16 13:21:30;;;;;;;;;;;;;;;;;;4942675;28;100141;-81
2023/08/16 13:24:11;;;;;;;2.80;1.20;;;;;;;;;;4933030;28;98975;-81
2023/08/16 13:26:58;;;;;;;3.13;1.30;;;;;;;;;;4934199;28;98554;-80
2023/08/16 13:29:28;;;;;;;2.47;1.20;;;;;;;;;;4938897;28;98935;-80
2023/08/16 13:32:15;;;;;;;3.97;1.10;;;;;;;;;;4948601;28;99163;-81
2023/08/16 13:34:45;;;;;;;2.78;1.10;;;;;;;;;;4945024;28;98773;-81
2023/08/16 13:37:14;;;;;;;2.90;1.20;;;;;;;;;;4942121;28;97779;-82
2023/08/16 13:39:44;;;;;;;3.17;1.10;;;;;;;;;;4954002;28;99575;-81
2023/08/16 13:42:16;;;;;;;1.13;0.77;;;;;;;;;;4938172;28;99504;-81
2023/08/16 13:44:44;;;;;;;2.97;1.10;;;;;;;;;;4930736;28;100010;-81
2023/08/16 13:47:30;;;;;;;2.75;1.30;;;;;;;;;;4934256;28;98966;-82
2023/08/16 13:49:57;;;;;;;3.65;1.00;;;;;;;;;;4937991;28;99698;-82
2023/08/16 13:52:24;;;;;;;2.90;1.10;;;;;;;;;;4927493;28;102529;-81
2023/08/16 13:54:51;;;;;;;2.78;1.00;;;;;;;;;;4941347;28;100099;-81
2023/08/16 13:57:17;;;;;;;2.53;1.15;;;;;;;;;;4939557;28;101161;-80
2023/08/16 13:59:44;;;;;;;2.78;1.10;;;;;;;;;;4928260;28;98652;-82
2023/08/16 14:02:11;;;;;;;2.03;1.20;;;;;;;;;;4938312;28;99421;-81
2023/08/16 14:04:37;;;;;;;3.35;1.20;;;;;;;;;;4927437;28;99216;-81
2023/08/16 14:07:04;;;;;;;3.47;1.20;;;;;;;;;;4944659;28;98904;-81
2023/08/16 14:09:30;;;;;;;2.65;1.30;;;;;;;;;;4936493;28;99508;-81
2023/08/16 14:11:57;;;;;;;1.80;1.10;;;;;;;;;;4928971;28;99147;-81
2023/08/16 14:14:24;;;;;;;2.80;1.20;;;;;;;;;;4926776;28;98785;-81
2023/08/16 14:16:50;;;;;;;3.17;1.13;;;;;;;;;;4925725;28;99849;-81
2023/08/16 14:19:17;;;;;;;3.40;1.40;;;;;;;;;;4932282;28;99056;-82
2023/08/16 14:21:44;;;;;;;2.65;1.23;;;;;;;;;;4927182;28;99189;-81
2023/08/16 14:24:12;;;;;;;2.65;1.20;;;;;;;;;;4933596;28;102362;-81
2023/08/16 14:26:38;;;;;;;1.70;1.20;;;;;;;;;;4923266;28;99606;-82
2023/08/16 14:29:06;;;;;;;2.92;1.20;;;;;;;;;;4924869;28;98964;-82
2023/08/16 14:31:33;;;;;;;2.90;1.30;;;;;;;;;;4927921;28;101150;-81
2023/08/16 14:33:59;;;;;;;3.95;1.25;;;;;;;;;;4922794;28;100636;-82
2023/08/16 14:36:26;;;;;;;2.90;1.25;;;;;;;;;;4924032;28;100622;-81
2023/08/16 14:38:52;;;;;;;4.88;1.40;;;;;;;;;;4924221;28;99196;-80
2023/08/16 14:41:26;;;;;;;2.65;1.15;;;;;;;;;;4946526;28;99121;-80
2023/08/16 14:43:52;;;;;;;2.83;1.27;;;;;;;;;;4938329;28;99101;-80
2023/08/16 14:46:19;;;;;;;3.92;1.20;;;;;;;;;;4956254;28;98848;-81
2023/08/16 14:48:45;;;;;;;2.13;1.20;;;;;;;;;;4931464;28;98972;-82